M I D A S
Marine Information and Data Acquisition System
Tripno 2328 of the Zeeleeuw from 2012-06-13 06:36:32 to 2012-06-13 15:00:56
Back to CruiseResearch ActivitiesStationsMapUnderway DataData graphs

EquipmentUnitsComment
TimeDGPSUTC
LatitudeDGPSDM.mWGS84
LongitudeDGPSDM.mWGS84
HeadingGyrodeg 
SOGDGPSknotsSpeed over ground
COGDGPSdegCourse over ground
DepthEcho soundermeters200 kHz
Missing or incorrect values are displayed as -999
Navigation data collected by the RV Zeeleeuw from 2012-06-13 06:15:50 to 2012-06-13 15:20:09
                                                                                    Next 1000 lines
Time Latitude Longitude Heading SOG COG Depth
2012-06-13 06:15:59 51°13.631 2°56.009 109.8 1.2 284 10.7
2012-06-13 06:16:04 51°13.632 2°56.005 109.7 1.7 289 10.6
2012-06-13 06:16:10 51°13.633 2°56 109.7 2 289 -999
2012-06-13 06:16:15 51°13.634 2°55.996 109.8 2 289 -999
2012-06-13 06:16:19 51°13.635 2°55.993 109.7 2 287 -999
2012-06-13 06:16:24 51°13.636 2°55.988 109.4 2.1 288 -999
2012-06-13 06:16:30 51°13.637 2°55.983 109.3 2.1 285 -999
2012-06-13 06:16:35 51°13.638 2°55.979 109.3 2.1 286 -999
2012-06-13 06:16:39 51°13.638 2°55.975 109.4 2.1 286 -999
2012-06-13 06:16:45 51°13.639 2°55.97 109.7 2.1 286 -999
2012-06-13 06:16:50 51°13.64 2°55.965 110.1 2.1 286 -999
2012-06-13 06:16:55 51°13.641 2°55.96 110.4 2.2 286 -999
2012-06-13 06:16:59 51°13.642 2°55.956 110.8 2.3 287 -999
2012-06-13 06:17:04 51°13.643 2°55.951 111.3 2.5 287 -999
2012-06-13 06:17:09 51°13.644 2°55.946 111.9 2.8 288 -999
2012-06-13 06:17:15 51°13.645 2°55.938 112.3 3 288 -999
2012-06-13 06:17:19 51°13.646 2°55.933 112.8 3.1 288 -999
2012-06-13 06:17:24 51°13.648 2°55.926 113.3 3.3 290 -999
2012-06-13 06:17:29 51°13.65 2°55.919 114 3.5 289 -999
2012-06-13 06:17:34 51°13.652 2°55.911 114.9 3.6 291 -999
2012-06-13 06:17:39 51°13.653 2°55.903 116 3.8 292 -999
2012-06-13 06:17:44 51°13.656 2°55.896 117.2 3.9 294 -999
2012-06-13 06:17:49 51°13.658 2°55.888 118.4 4 294 -999
2012-06-13 06:17:54 51°13.66 2°55.88 119.5 4 296 -999
2012-06-13 06:17:59 51°13.663 2°55.871 120.4 4.1 297 -999
2012-06-13 06:18:04 51°13.666 2°55.863 121.3 4.2 298 -999
2012-06-13 06:18:09 51°13.668 2°55.855 122.2 4.3 298 -999
2012-06-13 06:18:14 51°13.671 2°55.846 122.8 4.3 299 -999
2012-06-13 06:18:19 51°13.675 2°55.838 123.8 4.4 301 -999
2012-06-13 06:18:25 51°13.678 2°55.829 124.9 4.4 302 -999
2012-06-13 06:18:29 51°13.681 2°55.822 126.1 4.4 304 -999
2012-06-13 06:18:35 51°13.685 2°55.813 127.4 4.5 306 -999
2012-06-13 06:18:39 51°13.688 2°55.807 128.8 4.5 307 -999
2012-06-13 06:18:44 51°13.692 2°55.8 129.7 4.5 307 -999
2012-06-13 06:18:50 51°13.696 2°55.791 130.1 4.5 308 -999
2012-06-13 06:18:54 51°13.699 2°55.784 130.5 4.6 309 -999
2012-06-13 06:18:59 51°13.704 2°55.776 131 4.6 309 -999
2012-06-13 06:19:04 51°13.708 2°55.768 131.5 4.7 310 -999
2012-06-13 06:19:09 51°13.712 2°55.76 131.9 4.7 309 -999
2012-06-13 06:19:15 51°13.717 2°55.75 132.2 4.8 311 -999
2012-06-13 06:19:20 51°13.721 2°55.742 132.6 4.8 309 -999
2012-06-13 06:19:24 51°13.725 2°55.736 133.1 4.8 311 -999
2012-06-13 06:19:29 51°13.729 2°55.727 133.7 4.8 311 -999
2012-06-13 06:19:34 51°13.734 2°55.719 134.9 4.9 313 -999
2012-06-13 06:19:39 51°13.738 2°55.711 136.3 5 313 -999
2012-06-13 06:19:44 51°13.743 2°55.704 137.7 5 316 -999
2012-06-13 06:19:49 51°13.749 2°55.696 139.1 5.1 317 -999
2012-06-13 06:19:53 51°13.753 2°55.69 140.5 5.1 319 -999
2012-06-13 06:19:59 51°13.76 2°55.681 142 5.2 320 -999
2012-06-13 06:20:05 51°13.767 2°55.672 143.7 5.2 322 -999
2012-06-13 06:20:10 51°13.773 2°55.665 145.3 5.3 324 -999
2012-06-13 06:20:14 51°13.778 2°55.66 147.2 5.3 325 -999
2012-06-13 06:20:19 51°13.785 2°55.653 148.9 5.3 328 -999
2012-06-13 06:20:24 51°13.791 2°55.647 150.3 5.4 329 -999
2012-06-13 06:20:29 51°13.798 2°55.641 151.4 5.5 330 -999
2012-06-13 06:20:35 51°13.806 2°55.634 152.2 5.5 330 -999
2012-06-13 06:20:39 51°13.811 2°55.63 152.9 5.4 331 -999
2012-06-13 06:20:44 51°13.818 2°55.624 154 5.3 332 -999
2012-06-13 06:20:49 51°13.824 2°55.619 155.8 5.2 335 -999
2012-06-13 06:20:54 51°13.831 2°55.615 158.1 5.1 337 -999
2012-06-13 06:20:59 51°13.837 2°55.61 160.5 5.1 338 -999
2012-06-13 06:21:04 51°13.844 2°55.607 163.2 5 341 -999
2012-06-13 06:21:09 51°13.851 2°55.603 166.2 5 343 -999
2012-06-13 06:21:14 51°13.857 2°55.601 169.4 5 347 -999
2012-06-13 06:21:19 51°13.864 2°55.599 173 4.9 350 -999
2012-06-13 06:21:24 51°13.871 2°55.597 176.9 4.8 355 -999
2012-06-13 06:21:29 51°13.877 2°55.597 181 4.7 359 -999
2012-06-13 06:21:35 51°13.885 2°55.598 185.5 4.7 5 -999
2012-06-13 06:21:39 51°13.89 2°55.599 190.3 4.6 9 -999
2012-06-13 06:21:44 51°13.896 2°55.602 195.2 4.6 14 -999
2012-06-13 06:21:49 51°13.902 2°55.605 200.1 4.6 20 -999
2012-06-13 06:21:54 51°13.908 2°55.609 204.7 4.6 24 -999
2012-06-13 06:21:59 51°13.914 2°55.614 209 4.5 29 -999
2012-06-13 06:22:04 51°13.919 2°55.619 212.9 4.3 32 -999
2012-06-13 06:22:09 51°13.923 2°55.625 216.2 4.1 35 -999
2012-06-13 06:22:15 51°13.928 2°55.631 218.8 3.9 37 -999
2012-06-13 06:22:19 51°13.932 2°55.635 221.1 3.7 40 -999
2012-06-13 06:22:24 51°13.935 2°55.64 223.1 3.5 41 -999
2012-06-13 06:22:29 51°13.939 2°55.645 224.8 3.3 42 -999
2012-06-13 06:22:34 51°13.942 2°55.65 226 3 43 -999
2012-06-13 06:22:39 51°13.944 2°55.654 226.9 2.6 44 -999
2012-06-13 06:22:44 51°13.947 2°55.657 228.5 2 42 -999
2012-06-13 06:22:49 51°13.948 2°55.659 230.2 1.1 39 -999
2012-06-13 06:22:54 51°13.948 2°55.659 233.5 0.3 316 -999
2012-06-13 06:22:59 51°13.948 2°55.657 238.9 1 260 -999
2012-06-13 06:23:04 51°13.948 2°55.653 246.1 1.6 261 -999
2012-06-13 06:23:10 51°13.947 2°55.647 254.8 2.3 268 -999
2012-06-13 06:23:15 51°13.948 2°55.641 263.9 2.7 273 -999
2012-06-13 06:23:20 51°13.949 2°55.635 273.2 3.1 280 -999
2012-06-13 06:23:24 51°13.95 2°55.629 282.5 3.3 289 -999
2012-06-13 06:23:29 51°13.952 2°55.623 290.8 3.4 296 -999
2012-06-13 06:23:35 51°13.956 2°55.614 297.1 3.8 305 -999
2012-06-13 06:23:39 51°13.959 2°55.608 305 4.5 311 -999
2012-06-13 06:23:44 51°13.964 2°55.601 311.1 5 318 12.7
2012-06-13 06:23:49 51°13.97 2°55.594 316.5 5.3 319 -999
2012-06-13 06:23:54 51°13.976 2°55.585 321.1 5.8 319 13.2
2012-06-13 06:23:59 51°13.983 2°55.576 323.4 6.3 322 -999
2012-06-13 06:24:05 51°13.992 2°55.566 325.2 6.7 324 -999
2012-06-13 06:24:09 51°13.998 2°55.558 326.4 7 324 -999
2012-06-13 06:24:13 51°14.005 2°55.551 327.5 7.3 326 -999
2012-06-13 06:24:20 51°14.017 2°55.538 328 7.6 325 -999
2012-06-13 06:24:25 51°14.026 2°55.529 328.2 7.8 327 -999
2012-06-13 06:24:30 51°14.036 2°55.52 329.1 8 328 12.8
2012-06-13 06:24:34 51°14.043 2°55.512 329.9 8.1 328 -999
2012-06-13 06:24:39 51°14.053 2°55.502 330.7 8.3 328 -999
2012-06-13 06:24:44 51°14.064 2°55.493 331.4 8.4 330 -999
2012-06-13 06:24:50 51°14.076 2°55.481 331.1 8.5 328 -999
2012-06-13 06:24:55 51°14.086 2°55.471 330.3 8.6 328 -999
2012-06-13 06:24:59 51°14.094 2°55.463 331 8.6 329 -999
2012-06-13 06:25:04 51°14.104 2°55.452 331.6 8.7 328 -999
2012-06-13 06:25:09 51°14.114 2°55.442 331.1 8.7 327 -999
2012-06-13 06:25:14 51°14.124 2°55.431 329.6 8.8 327 -999
2012-06-13 06:25:19 51°14.135 2°55.422 329.9 8.9 328 -999
2012-06-13 06:25:23 51°14.144 2°55.413 331.4 8.9 330 -999
2012-06-13 06:25:30 51°14.159 2°55.399 332.2 9 329 -999
2012-06-13 06:25:35 51°14.17 2°55.389 331.7 9.1 328 -999
2012-06-13 06:25:40 51°14.181 2°55.379 331.1 9.1 330 -999
2012-06-13 06:25:44 51°14.189 2°55.37 332 9.1 330 -999
2012-06-13 06:25:49 51°14.2 2°55.36 331.8 9.2 329 -999
2012-06-13 06:25:54 51°14.211 2°55.35 331.6 9.2 329 -999
2012-06-13 06:26:00 51°14.224 2°55.337 332.2 9.3 330 -999
2012-06-13 06:26:05 51°14.236 2°55.326 332.4 9.4 329 -999
2012-06-13 06:26:09 51°14.244 2°55.317 331.3 9.5 328 -999
2012-06-13 06:26:14 51°14.256 2°55.306 331.8 9.6 331 -999
2012-06-13 06:26:19 51°14.268 2°55.295 332.5 9.7 329 -999
2012-06-13 06:26:24 51°14.279 2°55.284 331.3 9.9 328 -999
2012-06-13 06:26:29 51°14.291 2°55.272 329.8 9.9 327 -999
2012-06-13 06:26:33 51°14.3 2°55.262 329.3 10 327 -999
2012-06-13 06:26:39 51°14.314 2°55.248 330.6 10 329 -999
2012-06-13 06:26:44 51°14.326 2°55.236 331.1 10 328 33.9
2012-06-13 06:26:49 51°14.337 2°55.224 330.3 10 327 -999
2012-06-13 06:26:54 51°14.349 2°55.212 329.2 10 327 -999
2012-06-13 06:26:59 51°14.361 2°55.2 329.6 10 327 -999
2012-06-13 06:27:04 51°14.372 2°55.187 329.5 10.1 326 -999
2012-06-13 06:27:09 51°14.384 2°55.175 328.9 10.1 326 -999
2012-06-13 06:27:14 51°14.396 2°55.162 328.2 10.1 325 -999
2012-06-13 06:27:19 51°14.407 2°55.149 327.1 10.1 323 -999
2012-06-13 06:27:24 51°14.418 2°55.136 325.7 10.1 324 -999
2012-06-13 06:27:30 51°14.432 2°55.12 326.2 10.2 325 -999
2012-06-13 06:27:34 51°14.441 2°55.11 327.7 10.2 326 12.9
2012-06-13 06:27:38 51°14.45 2°55.1 328.1 10.1 325 12.7
2012-06-13 06:27:45 51°14.467 2°55.081 327.4 10.2 325 -999
2012-06-13 06:27:50 51°14.478 2°55.069 327.6 10.2 326 -999
2012-06-13 06:27:55 51°14.49 2°55.057 328.4 10.1 327 -999
2012-06-13 06:27:59 51°14.499 2°55.047 329.1 10.1 327 12.7
2012-06-13 06:28:04 51°14.511 2°55.035 329.1 10.1 328 13.1
2012-06-13 06:28:09 51°14.523 2°55.023 329.3 10.3 329 13.4
2012-06-13 06:28:14 51°14.536 2°55.012 329.6 10.2 330 13.7
2012-06-13 06:28:19 51°14.548 2°55.001 330.3 10.1 331 14.5
2012-06-13 06:28:24 51°14.56 2°54.989 330.7 10.3 331 14
2012-06-13 06:28:28 51°14.571 2°54.981 329.6 10.3 335 14.3
2012-06-13 06:28:34 51°14.587 2°54.971 329.9 10.4 338 14.3
2012-06-13 06:28:39 51°14.6 2°54.963 332.1 10.3 340 14.1
2012-06-13 06:28:43 51°14.611 2°54.957 333.9 10.3 339 14.2
2012-06-13 06:28:48 51°14.624 2°54.947 334.4 10.2 337 14
2012-06-13 06:28:53 51°14.637 2°54.937 331.8 10.2 334 13.9
2012-06-13 06:28:58 51°14.649 2°54.927 329.2 10.2 333 13.9
2012-06-13 06:29:03 51°14.661 2°54.916 327.6 10.1 330 13.8
2012-06-13 06:29:08 51°14.674 2°54.905 325.9 10.1 330 13.5
2012-06-13 06:29:12 51°14.683 2°54.895 324.6 10.1 328 13.8
2012-06-13 06:29:18 51°14.697 2°54.88 323.1 10 327 13.7
2012-06-13 06:29:22 51°14.706 2°54.87 322.1 10 325 13.3
2012-06-13 06:29:27 51°14.717 2°54.857 321.2 9.9 326 13.4
2012-06-13 06:29:31 51°14.726 2°54.847 320.8 10 325 13.3
2012-06-13 06:29:36 51°14.738 2°54.834 320.2 10 325 13.4
2012-06-13 06:29:41 51°14.749 2°54.821 320.3 10 324 13.2
2012-06-13 06:29:47 51°14.762 2°54.804 319.2 10 323 13.4
2012-06-13 06:29:51 51°14.771 2°54.794 318.4 10 323 13.3
2012-06-13 06:29:57 51°14.785 2°54.777 318.3 10 323 13.2
2012-06-13 06:30:02 51°14.796 2°54.764 318.7 10.1 324 13.3
2012-06-13 06:30:07 51°14.808 2°54.751 320.3 10.2 325 13.5
2012-06-13 06:30:12 51°14.82 2°54.739 321.6 10.2 325 13.6
2012-06-13 06:30:16 51°14.829 2°54.729 321.4 10.2 325 13.7
2012-06-13 06:30:21 51°14.841 2°54.715 320.9 10.3 325 13.8
2012-06-13 06:30:26 51°14.852 2°54.702 321.1 10.3 325 13.7
2012-06-13 06:30:31 51°14.864 2°54.689 321.5 10.2 326 14
2012-06-13 06:30:36 51°14.876 2°54.677 321.6 10.2 326 13.4
2012-06-13 06:30:41 51°14.887 2°54.665 322.2 10.1 326 13.9
2012-06-13 06:30:46 51°14.899 2°54.653 322.8 10.1 325 13.7
2012-06-13 06:30:51 51°14.91 2°54.64 323 10.2 326 13.8
2012-06-13 06:30:56 51°14.922 2°54.626 321.7 10 323 13.1
2012-06-13 06:31:00 51°14.93 2°54.614 319.5 10 322 13.9
2012-06-13 06:31:05 51°14.941 2°54.601 319.4 10.1 325 13.6
2012-06-13 06:31:11 51°14.956 2°54.587 321.4 10.1 327 13.2
2012-06-13 06:31:16 51°14.968 2°54.576 323.7 10.2 329 13.3
2012-06-13 06:31:20 51°14.978 2°54.567 326.2 10.2 332 13.1
2012-06-13 06:31:25 51°14.991 2°54.558 329 10.1 334 12.9
2012-06-13 06:31:30 51°15.004 2°54.55 332.1 10.1 339 13.1
2012-06-13 06:31:35 51°15.017 2°54.544 336.2 9.6 343 12.8
2012-06-13 06:31:41 51°15.031 2°54.542 344 8.9 353 12.6
2012-06-13 06:31:45 51°15.04 2°54.54 350.1 8.3 356 12.2
2012-06-13 06:31:50 51°15.051 2°54.54 353.7 7.5 2 12.1
2012-06-13 06:31:55 51°15.061 2°54.541 356.5 6.8 7 12.3
2012-06-13 06:32:01 51°15.071 2°54.544 1.8 6.4 10 12.1
2012-06-13 06:32:05 51°15.077 2°54.546 4.8 6 11 11.5
2012-06-13 06:32:11 51°15.086 2°54.55 7 5.5 15 11.5
2012-06-13 06:32:16 51°15.093 2°54.554 8.4 5.1 17 11.6
2012-06-13 06:32:21 51°15.099 2°54.557 9.8 4.7 18 11.5
2012-06-13 06:32:25 51°15.104 2°54.56 12.3 4.2 22 11.3
2012-06-13 06:32:31 51°15.109 2°54.564 15.8 4 28 11.1
2012-06-13 06:32:35 51°15.113 2°54.567 19.2 3.7 29 11.1
2012-06-13 06:32:41 51°15.117 2°54.573 23.5 3.3 34 11.2
2012-06-13 06:32:45 51°15.12 2°54.576 27.9 3 38 11.3
2012-06-13 06:32:51 51°15.123 2°54.581 32.8 2.6 41 11.4
2012-06-13 06:32:56 51°15.125 2°54.585 37.6 2.2 45 11.2
2012-06-13 06:33:01 51°15.127 2°54.588 42.8 1.9 49 11.1
2012-06-13 06:33:05 51°15.128 2°54.591 47.6 1.6 56 11.4
2012-06-13 06:33:11 51°15.13 2°54.594 51.3 1.4 57 11.4
2012-06-13 06:33:16 51°15.131 2°54.597 55.5 1.3 60 11.1
2012-06-13 06:33:21 51°15.131 2°54.599 59 1.2 63 11.3
2012-06-13 06:33:25 51°15.132 2°54.601 62.2 1.2 69 11.3
2012-06-13 06:33:31 51°15.133 2°54.604 65 1.1 64 11.2
2012-06-13 06:33:36 51°15.134 2°54.606 69 1.1 56 10.9
2012-06-13 06:33:41 51°15.134 2°54.609 72.4 1.1 65 11.1
2012-06-13 06:33:46 51°15.135 2°54.611 75.3 1.1 60 10.7
2012-06-13 06:33:51 51°15.135 2°54.613 78.5 1.1 63 10.8
2012-06-13 06:33:56 51°15.135 2°54.615 80 1.1 79 11.1
2012-06-13 06:34:01 51°15.136 2°54.618 83.8 1.2 64 11
2012-06-13 06:34:06 51°15.136 2°54.621 86.6 1.5 73 11
2012-06-13 06:34:11 51°15.137 2°54.624 87.2 1.8 76 11
2012-06-13 06:34:16 51°15.138 2°54.63 87.3 2.4 70 11
2012-06-13 06:34:21 51°15.139 2°54.635 84.8 2.7 78 11.3
2012-06-13 06:34:27 51°15.141 2°54.643 82 3 70 10.9
2012-06-13 06:34:30 51°15.141 2°54.647 77.9 3.3 73 10.8
2012-06-13 06:34:36 51°15.144 2°54.656 73.5 3.5 67 11.2
2012-06-13 06:34:41 51°15.146 2°54.663 69.3 3.6 64 11.2
2012-06-13 06:34:46 51°15.149 2°54.67 62.5 3.8 59 11.1
2012-06-13 06:34:51 51°15.152 2°54.677 56.6 3.9 57 11.2
2012-06-13 06:34:56 51°15.155 2°54.684 50.4 3.9 52 11.2
2012-06-13 06:35:01 51°15.159 2°54.69 45.9 3.9 46 11.3
2012-06-13 06:35:06 51°15.163 2°54.696 40 3.9 43 11.3
2012-06-13 06:35:11 51°15.168 2°54.701 32.7 4 36 11.1
2012-06-13 06:35:15 51°15.171 2°54.705 26.9 4 31 11.1
2012-06-13 06:35:21 51°15.177 2°54.71 20.6 4 28 11.1
2012-06-13 06:35:27 51°15.184 2°54.714 14.2 4 21 11.1
2012-06-13 06:35:32 51°15.189 2°54.716 9.2 4 15 11.3
2012-06-13 06:35:37 51°15.194 2°54.717 1.4 3.9 9 11.3
2012-06-13 06:35:42 51°15.199 2°54.717 354.7 3.8 4 11.1
2012-06-13 06:35:46 51°15.203 2°54.717 347.9 3.7 357 11.1
2012-06-13 06:35:51 51°15.208 2°54.716 340.5 3.5 349 11.2
2012-06-13 06:35:57 51°15.213 2°54.713 334.8 3.4 343 11.1
2012-06-13 06:36:01 51°15.217 2°54.711 326.3 3.4 338 11.2
2012-06-13 06:36:06 51°15.221 2°54.707 320.1 3.3 330 11.3
2012-06-13 06:36:11 51°15.224 2°54.703 312.7 3.2 322 11.3
2012-06-13 06:36:16 51°15.228 2°54.698 305.7 3.4 316 11.2
2012-06-13 06:36:21 51°15.231 2°54.692 298.6 3.8 311 11
2012-06-13 06:36:25 51°15.234 2°54.685 294.9 4.3 305 11.5
2012-06-13 06:36:30 51°15.237 2°54.677 294 4.7 303 11.5
2012-06-13 06:36:36 51°15.242 2°54.666 294 5.1 304 11.6
2012-06-13 06:36:41 51°15.247 2°54.656 294.9 5.4 306 11.3
2012-06-13 06:36:46 51°15.251 2°54.646 297 5.7 307 11.3
2012-06-13 06:36:51 51°15.257 2°54.635 299.1 6 308 11.7
2012-06-13 06:36:56 51°15.262 2°54.625 300.6 6.2 309 11.8
2012-06-13 06:37:01 51°15.268 2°54.614 302.9 6.4 312 11.4
2012-06-13 06:37:06 51°15.274 2°54.604 304.4 6.6 313 11.5
2012-06-13 06:37:10 51°15.28 2°54.595 306.9 6.8 315 11.6
2012-06-13 06:37:15 51°15.287 2°54.585 309 7 317 11.7
2012-06-13 06:37:20 51°15.294 2°54.575 311.1 7.1 319 11.8
2012-06-13 06:37:26 51°15.304 2°54.563 313 7.2 322 11.9
2012-06-13 06:37:31 51°15.312 2°54.553 315.2 7.3 323 11.6
2012-06-13 06:37:36 51°15.32 2°54.544 317.3 7.3 325 11.6
2012-06-13 06:37:41 51°15.329 2°54.534 318.6 7.4 324 11.7
2012-06-13 06:37:46 51°15.338 2°54.525 319.6 7.5 327 11.6
2012-06-13 06:37:51 51°15.347 2°54.516 320.8 7.6 327 11.7
2012-06-13 06:37:56 51°15.356 2°54.507 321.8 7.7 329 11.9
2012-06-13 06:38:01 51°15.365 2°54.498 322.4 7.7 328 11.8
2012-06-13 06:38:05 51°15.372 2°54.491 322.9 7.7 330 11.5
2012-06-13 06:38:10 51°15.382 2°54.482 323.4 7.8 329 11.6
2012-06-13 06:38:15 51°15.391 2°54.473 323.3 7.9 328 12.1
2012-06-13 06:38:19 51°15.398 2°54.466 323.4 7.9 329 12.1
2012-06-13 06:38:25 51°15.409 2°54.454 323.4 7.9 329 12.1
2012-06-13 06:38:30 51°15.418 2°54.444 323.4 7.9 329 11.9
2012-06-13 06:38:35 51°15.428 2°54.435 323.8 7.9 329 12.3
2012-06-13 06:38:40 51°15.437 2°54.426 323.8 7.9 328 12.1
2012-06-13 06:38:45 51°15.446 2°54.417 323.4 7.9 328 12.3
2012-06-13 06:38:51 51°15.458 2°54.406 322.6 8 328 12.2
2012-06-13 06:38:55 51°15.465 2°54.399 322.8 8 328 12.2
2012-06-13 06:39:00 51°15.475 2°54.389 322.8 8 327 12.1
2012-06-13 06:39:06 51°15.486 2°54.378 322.5 8.1 327 12.4
2012-06-13 06:39:11 51°15.496 2°54.368 321.9 8.1 326 12.5
2012-06-13 06:39:15 51°15.504 2°54.361 321.9 8 327 12.6
2012-06-13 06:39:19 51°15.511 2°54.353 321.7 8 325 12.6
2012-06-13 06:39:25 51°15.522 2°54.341 321.5 8.1 326 12.4
2012-06-13 06:39:31 51°15.533 2°54.329 321.4 8 325 12.3
2012-06-13 06:39:35 51°15.54 2°54.321 321.1 8 326 12.5
2012-06-13 06:39:40 51°15.549 2°54.31 320.8 8.1 325 12.2
2012-06-13 06:39:45 51°15.558 2°54.301 320.7 7.9 325 12.4
2012-06-13 06:39:51 51°15.569 2°54.289 320.4 7.9 325 12.5
2012-06-13 06:39:55 51°15.577 2°54.281 320.4 8 325 12.6
2012-06-13 06:40:00 51°15.586 2°54.271 320.4 8 324 12.8
2012-06-13 06:40:05 51°15.594 2°54.261 320.1 8 325 12.8
2012-06-13 06:40:10 51°15.603 2°54.25 319.9 7.8 324 12.4
2012-06-13 06:40:15 51°15.612 2°54.24 319.2 7.7 324 12.9
2012-06-13 06:40:19 51°15.619 2°54.232 318.8 7.8 323 12.9
2012-06-13 06:40:25 51°15.629 2°54.22 319.2 7.8 323 12.7
2012-06-13 06:40:30 51°15.638 2°54.209 319.4 7.7 323 12.6
2012-06-13 06:40:35 51°15.646 2°54.199 319.4 7.8 323 12.8
2012-06-13 06:40:40 51°15.655 2°54.188 318.5 7.8 321 12.9
2012-06-13 06:40:45 51°15.663 2°54.177 316.7 7.8 320 12.9
2012-06-13 06:40:51 51°15.673 2°54.163 315.8 7.7 318 12.9
2012-06-13 06:40:55 51°15.679 2°54.154 314.9 7.7 318 13
2012-06-13 06:41:00 51°15.687 2°54.142 313.5 7.8 316 12.9
2012-06-13 06:41:06 51°15.696 2°54.127 312.6 7.8 316 13.2
2012-06-13 06:41:11 51°15.704 2°54.115 311.8 7.9 315 13.2
2012-06-13 06:41:15 51°15.71 2°54.105 311.5 7.8 315 12.6
2012-06-13 06:41:19 51°15.715 2°54.096 310.3 7.7 314 13
2012-06-13 06:41:25 51°15.724 2°54.081 309.7 7.8 314 13.1
2012-06-13 06:41:31 51°15.733 2°54.066 309.3 7.8 313 12.8
2012-06-13 06:41:35 51°15.739 2°54.055 308.6 7.8 312 13.1
2012-06-13 06:41:40 51°15.746 2°54.042 307.8 7.9 312 13.3
2012-06-13 06:41:45 51°15.753 2°54.029 307.6 7.8 311 12.8
2012-06-13 06:41:51 51°15.762 2°54.014 306.6 7.7 311 12.9
2012-06-13 06:41:55 51°15.767 2°54.003 306.1 7.8 310 13.3
2012-06-13 06:42:00 51°15.774 2°53.99 306.1 7.8 310 13
2012-06-13 06:42:05 51°15.781 2°53.976 305.9 7.8 310 13.2
2012-06-13 06:42:10 51°15.788 2°53.963 305.6 7.6 309 12.9
2012-06-13 06:42:15 51°15.795 2°53.95 305 7.7 309 13.4
2012-06-13 06:42:19 51°15.8 2°53.939 305.1 7.7 309 13.3
2012-06-13 06:42:25 51°15.808 2°53.924 305.6 7.6 310 13.8
2012-06-13 06:42:30 51°15.815 2°53.91 305.7 7.7 309 13.8
2012-06-13 06:42:35 51°15.822 2°53.897 305.8 7.6 310 13.2
2012-06-13 06:42:40 51°15.829 2°53.885 306.5 7.5 309 13.2
2012-06-13 06:42:45 51°15.835 2°53.871 305.8 7.7 310 13.4
2012-06-13 06:42:50 51°15.842 2°53.858 305.7 7.7 310 13.4
2012-06-13 06:42:55 51°15.849 2°53.845 306.1 7.7 311 13.5
2012-06-13 06:43:00 51°15.856 2°53.832 307 7.8 312 13.3
2012-06-13 06:43:05 51°15.864 2°53.82 307.5 7.8 312 13.4
2012-06-13 06:43:11 51°15.872 2°53.804 308 7.9 312 13.5
2012-06-13 06:43:15 51°15.878 2°53.794 308.1 7.9 312 13.4
2012-06-13 06:43:20 51°15.885 2°53.78 307.7 7.8 312 13.5
2012-06-13 06:43:25 51°15.893 2°53.767 307.8 7.8 312 14.1
2012-06-13 06:43:31 51°15.901 2°53.752 308.3 7.9 312 13.8
2012-06-13 06:43:35 51°15.907 2°53.742 308.6 7.9 312 13.3
2012-06-13 06:43:40 51°15.914 2°53.729 308.6 7.9 313 13.5
2012-06-13 06:43:45 51°15.922 2°53.717 308.8 7.8 314 13.6
2012-06-13 06:43:51 51°15.931 2°53.702 309.4 7.8 314 13.5
2012-06-13 06:43:55 51°15.937 2°53.692 310.3 7.8 314 13.5
2012-06-13 06:44:00 51°15.945 2°53.68 310.5 7.8 315 13.8
2012-06-13 06:44:05 51°15.952 2°53.668 310.8 7.8 315 13.7
2012-06-13 06:44:11 51°15.961 2°53.653 311.3 7.7 315 13.5
2012-06-13 06:44:15 51°15.967 2°53.644 311.3 7.7 315 13.8
2012-06-13 06:44:19 51°15.973 2°53.634 310.8 7.6 313 14.6
2012-06-13 06:44:25 51°15.982 2°53.619 310.5 7.7 313 14.4
2012-06-13 06:44:31 51°15.991 2°53.604 310.9 7.7 315 13.7
2012-06-13 06:44:35 51°15.997 2°53.595 310.8 7.7 314 14
2012-06-13 06:44:40 51°16.005 2°53.583 311.4 7.8 315 13.8
2012-06-13 06:44:45 51°16.012 2°53.57 311.5 7.8 315 13.8
2012-06-13 06:44:51 51°16.022 2°53.556 311.5 7.8 315 13.9
2012-06-13 06:44:55 51°16.028 2°53.546 311.7 7.8 315 14.3
2012-06-13 06:45:00 51°16.036 2°53.534 311.8 7.9 315 14.9
2012-06-13 06:45:06 51°16.045 2°53.519 312.2 7.9 315 14.7
2012-06-13 06:45:11 51°16.053 2°53.507 311.3 7.9 314 14.3
2012-06-13 06:45:15 51°16.059 2°53.497 311.2 7.9 315 14.1
2012-06-13 06:45:19 51°16.065 2°53.487 311.1 7.9 315 14.4
2012-06-13 06:45:25 51°16.074 2°53.472 310.7 7.9 315 14.6
2012-06-13 06:45:31 51°16.083 2°53.457 310.6 7.9 314 14.2
2012-06-13 06:45:35 51°16.089 2°53.447 310.5 7.9 314 14.6
2012-06-13 06:45:40 51°16.097 2°53.434 310.7 8 314 14.8
2012-06-13 06:45:45 51°16.105 2°53.421 310.5 7.9 313 14.1
2012-06-13 06:45:50 51°16.112 2°53.409 309.9 7.8 313 14.2
2012-06-13 06:45:55 51°16.119 2°53.396 309.3 7.8 313 14.4
2012-06-13 06:46:00 51°16.127 2°53.383 309.2 7.9 313 14.3
2012-06-13 06:46:05 51°16.134 2°53.371 309.1 7.9 313 14.6
2012-06-13 06:46:10 51°16.142 2°53.358 309 8 313 14.9
2012-06-13 06:46:15 51°16.149 2°53.344 308.8 8 311 14.2
2012-06-13 06:46:20 51°16.156 2°53.332 308.3 7.9 311 14.6
2012-06-13 06:46:25 51°16.164 2°53.319 307.8 8 312 14.7
2012-06-13 06:46:31 51°16.172 2°53.303 307.7 8 312 14.6
2012-06-13 06:46:35 51°16.178 2°53.292 307.7 7.9 312 14.7
2012-06-13 06:46:39 51°16.184 2°53.282 307.8 8 312 14.8
2012-06-13 06:46:45 51°16.193 2°53.266 307.8 8 311 14.5
2012-06-13 06:46:50 51°16.2 2°53.252 307.5 7.9 310 14.2
2012-06-13 06:46:55 51°16.207 2°53.239 306.8 7.8 310 15.1
2012-06-13 06:47:00 51°16.214 2°53.225 306.5 7.8 309 15.2
2012-06-13 06:47:05 51°16.221 2°53.213 306.9 7.9 312 15
2012-06-13 06:47:11 51°16.23 2°53.197 308.6 7.7 314 14.5
2012-06-13 06:47:15 51°16.236 2°53.188 310.4 7.8 316 14.7
2012-06-13 06:47:20 51°16.244 2°53.176 311.8 7.8 316 14.9
2012-06-13 06:47:26 51°16.254 2°53.162 313.3 7.8 319 14.9
2012-06-13 06:47:31 51°16.262 2°53.151 314.6 7.7 319 14.6
2012-06-13 06:47:35 51°16.268 2°53.141 316 7.7 321 14.9
2012-06-13 06:47:39 51°16.275 2°53.132 317.5 7.8 321 15.2
2012-06-13 06:47:45 51°16.285 2°53.119 319 7.8 324 15
2012-06-13 06:47:51 51°16.296 2°53.107 319.9 8 325 15
2012-06-13 06:47:55 51°16.304 2°53.099 321.3 8 326 15
2012-06-13 06:48:00 51°16.313 2°53.089 322.4 7.9 326 14.5
2012-06-13 06:48:05 51°16.322 2°53.08 322.9 7.9 326 14.8
2012-06-13 06:48:11 51°16.333 2°53.069 323.2 7.9 327 14.7
2012-06-13 06:48:15 51°16.341 2°53.061 323.9 7.9 329 15.1
2012-06-13 06:48:20 51°16.35 2°53.052 324.5 7.9 328 15.1
2012-06-13 06:48:25 51°16.359 2°53.043 324.8 8 329 14.9
2012-06-13 06:48:31 51°16.371 2°53.032 325 8 328 14.8
2012-06-13 06:48:35 51°16.378 2°53.024 324.9 8 328 15
2012-06-13 06:48:39 51°16.386 2°53.017 324.8 8 328 15
2012-06-13 06:48:45 51°16.397 2°53.006 324.7 8.1 328 14.8
2012-06-13 06:48:51 51°16.409 2°52.994 324.4 8.1 328 14.7
2012-06-13 06:48:55 51°16.416 2°52.987 324.5 8 327 15.2
2012-06-13 06:49:00 51°16.426 2°52.977 324.5 8.1 328 15
2012-06-13 06:49:05 51°16.435 2°52.968 324.2 8.1 328 14.7
2012-06-13 06:49:10 51°16.445 2°52.959 324.3 8.1 328 14.9
2012-06-13 06:49:15 51°16.455 2°52.949 324.9 8.1 329 14.5
2012-06-13 06:49:20 51°16.464 2°52.94 325.2 8.1 331 14.5
2012-06-13 06:49:25 51°16.474 2°52.932 326.4 8.1 331 14.9
2012-06-13 06:49:30 51°16.485 2°52.925 327.7 8.2 332 14.9
2012-06-13 06:49:35 51°16.495 2°52.917 328.5 8.2 333 14.8
2012-06-13 06:49:40 51°16.505 2°52.908 329.3 8.1 334 14.4
2012-06-13 06:49:46 51°16.517 2°52.899 329.9 8.2 334 14.5
2012-06-13 06:49:50 51°16.525 2°52.893 331.1 8.2 336 14.6
2012-06-13 06:49:55 51°16.536 2°52.885 331.6 8.2 336 14.8
2012-06-13 06:50:00 51°16.546 2°52.878 332.3 8.2 337 14.6
2012-06-13 06:50:05 51°16.557 2°52.872 333.1 8.2 338 14.6
2012-06-13 06:50:10 51°16.568 2°52.865 333.7 8.2 338 14.6
2012-06-13 06:50:15 51°16.578 2°52.858 334.2 8.2 339 14.1
2012-06-13 06:50:20 51°16.589 2°52.851 334 8.2 339 14.4
2012-06-13 06:50:25 51°16.599 2°52.844 334.3 8.3 339 14.3
2012-06-13 06:50:30 51°16.61 2°52.838 334.6 8.3 339 14.1
2012-06-13 06:50:35 51°16.621 2°52.831 334.5 8.3 338 13.9
2012-06-13 06:50:40 51°16.631 2°52.825 334 8.2 339 14.1
2012-06-13 06:50:45 51°16.642 2°52.818 333.9 8.3 339 14.2
2012-06-13 06:50:51 51°16.655 2°52.81 334 8.2 338 13.7
2012-06-13 06:50:55 51°16.663 2°52.805 333.4 8.2 338 13.8
2012-06-13 06:50:59 51°16.672 2°52.799 333 8.2 337 13.8
2012-06-13 06:51:05 51°16.684 2°52.791 332.7 8.2 337 13.7
2012-06-13 06:51:11 51°16.697 2°52.782 332.4 8.2 336 13.7
2012-06-13 06:51:15 51°16.705 2°52.776 332.3 8.2 337 13.8
2012-06-13 06:51:20 51°16.716 2°52.769 332.5 8.1 336 13.3
2012-06-13 06:51:25 51°16.726 2°52.761 332.1 8.1 336 13.1
2012-06-13 06:51:31 51°16.738 2°52.753 331.7 8.2 336 12.9
2012-06-13 06:51:35 51°16.746 2°52.746 331.4 8.3 335 12.6
2012-06-13 06:51:40 51°16.757 2°52.739 331 8.1 335 12.3
2012-06-13 06:51:46 51°16.769 2°52.73 330.5 8.1 334 12.6
2012-06-13 06:51:50 51°16.777 2°52.724 330.2 8.1 335 12.5
2012-06-13 06:51:55 51°16.787 2°52.716 330 8.1 334 12.5
2012-06-13 06:51:59 51°16.795 2°52.71 329.9 8.2 334 12.5
2012-06-13 06:52:05 51°16.807 2°52.7 329.6 8.2 334 12.6
2012-06-13 06:52:10 51°16.818 2°52.692 329.6 8.2 334 12.6
2012-06-13 06:52:15 51°16.828 2°52.684 329.7 8.2 335 12.1
2012-06-13 06:52:20 51°16.838 2°52.676 329.7 8.2 333 12
2012-06-13 06:52:25 51°16.848 2°52.668 329.6 8.1 333 12.3
2012-06-13 06:52:31 51°16.86 2°52.658 329.5 8.2 333 12.7
2012-06-13 06:52:35 51°16.868 2°52.651 329.4 8.1 333 12.6
2012-06-13 06:52:40 51°16.878 2°52.643 329.3 8.1 333 12.7
2012-06-13 06:52:45 51°16.888 2°52.635 328.9 8.1 332 12.3
2012-06-13 06:52:51 51°16.9 2°52.625 328.3 8.1 332 12.6
2012-06-13 06:52:55 51°16.908 2°52.619 328.1 8.1 332 12.5
2012-06-13 06:52:59 51°16.916 2°52.611 327.4 8.1 331 12.8
2012-06-13 06:53:05 51°16.928 2°52.601 327.4 8.2 331 12.8
2012-06-13 06:53:11 51°16.94 2°52.59 327.7 8.2 331 12.8
2012-06-13 06:53:15 51°16.948 2°52.584 327.8 8.2 332 12.5
2012-06-13 06:53:20 51°16.958 2°52.575 328.1 8.2 332 12.7
2012-06-13 06:53:25 51°16.968 2°52.566 327.9 8.2 332 12.5
2012-06-13 06:53:30 51°16.978 2°52.558 327.6 8.2 332 12.4
2012-06-13 06:53:35 51°16.988 2°52.549 328 8.2 331 12.6
2012-06-13 06:53:40 51°16.998 2°52.54 328.7 8.2 332 12.2
2012-06-13 06:53:45 51°17.008 2°52.532 329.1 8.2 333 12.4
2012-06-13 06:53:50 51°17.018 2°52.524 329.1 8.1 333 12.4
2012-06-13 06:53:55 51°17.028 2°52.515 330.1 8.2 333 12.1
2012-06-13 06:54:00 51°17.038 2°52.507 329.8 8.2 333 12.4
2012-06-13 06:54:05 51°17.048 2°52.499 329.9 8.3 334 12.6
2012-06-13 06:54:10 51°17.058 2°52.491 330.3 8.3 333 12.7
2012-06-13 06:54:15 51°17.069 2°52.483 331 8.1 335 12.4
2012-06-13 06:54:21 51°17.081 2°52.475 331.5 8.1 335 12.8
2012-06-13 06:54:25 51°17.089 2°52.469 331.8 8.2 336 12.6
2012-06-13 06:54:30 51°17.1 2°52.461 332.1 8.2 336 12.6
2012-06-13 06:54:35 51°17.11 2°52.454 332.5 8.2 337 12.4
2012-06-13 06:54:40 51°17.12 2°52.447 333.6 8.2 337 12.9
2012-06-13 06:54:46 51°17.133 2°52.438 334 8.2 338 12.4
2012-06-13 06:54:51 51°17.143 2°52.431 334.3 8.2 338 12.5
2012-06-13 06:54:55 51°17.152 2°52.426 334.7 8.2 338 13
2012-06-13 06:54:59 51°17.161 2°52.421 335.4 8.5 338 12.8
2012-06-13 06:55:05 51°17.174 2°52.412 335.8 8.9 338 13
2012-06-13 06:55:10 51°17.187 2°52.404 335.4 9.7 337 12.9
2012-06-13 06:55:15 51°17.2 2°52.395 335.3 10.2 337 12.8
2012-06-13 06:55:20 51°17.213 2°52.386 335.4 10.5 338 12.7
2012-06-13 06:55:25 51°17.227 2°52.377 335.7 10.9 337 13
2012-06-13 06:55:31 51°17.244 2°52.366 335.5 11.2 337 12.9
2012-06-13 06:55:35 51°17.256 2°52.359 335.4 11.4 337 13
2012-06-13 06:55:40 51°17.271 2°52.349 335.5 11.6 337 12.9
2012-06-13 06:55:45 51°17.286 2°52.34 335.6 11.7 337 13.2
2012-06-13 06:55:50 51°17.301 2°52.329 335.7 11.8 338 12.9
2012-06-13 06:55:55 51°17.317 2°52.32 336.3 11.9 338 13
2012-06-13 06:56:00 51°17.332 2°52.309 336.7 11.9 338 13.2
2012-06-13 06:56:05 51°17.347 2°52.299 336.9 11.9 339 13.1
2012-06-13 06:56:10 51°17.363 2°52.289 337 11.9 337 13.5
2012-06-13 06:56:15 51°17.378 2°52.278 335.8 11.9 336 13
2012-06-13 06:56:20 51°17.393 2°52.267 334.4 11.9 333 13.9
2012-06-13 06:56:25 51°17.407 2°52.254 332.2 11.9 333 13.7
2012-06-13 06:56:30 51°17.422 2°52.242 331 12 333 14
2012-06-13 06:56:35 51°17.436 2°52.23 330.6 11.9 331 13.8
2012-06-13 06:56:40 51°17.451 2°52.217 329.6 11.9 331 13.6
2012-06-13 06:56:45 51°17.465 2°52.204 329.5 11.9 331 13.9
2012-06-13 06:56:50 51°17.48 2°52.191 329.1 12 331 14.2
2012-06-13 06:56:55 51°17.494 2°52.179 329.2 11.9 330 13.8
2012-06-13 06:57:00 51°17.508 2°52.165 328.8 12 330 13.9
2012-06-13 06:57:05 51°17.523 2°52.152 328.2 12 329 14.1
2012-06-13 06:57:10 51°17.537 2°52.138 327.6 11.9 329 13.7
2012-06-13 06:57:15 51°17.551 2°52.125 327.6 12 329 13.9
2012-06-13 06:57:20 51°17.565 2°52.111 327.4 12 328 13.5
2012-06-13 06:57:25 51°17.579 2°52.096 326.2 11.8 327 13.5
2012-06-13 06:57:31 51°17.595 2°52.078 325.1 11.9 326 13.8
2012-06-13 06:57:35 51°17.606 2°52.067 324.5 11.9 326 13.7
2012-06-13 06:57:40 51°17.621 2°52.054 324.5 11.9 325 13.6
2012-06-13 06:57:45 51°17.634 2°52.039 323.7 11.9 324 13.8
2012-06-13 06:57:50 51°17.648 2°52.024 323.3 11.8 324 13.2
2012-06-13 06:57:55 51°17.661 2°52.009 323 11.7 324 13.4
2012-06-13 06:58:00 51°17.674 2°51.993 322.1 11.8 324 13
2012-06-13 06:58:05 51°17.688 2°51.978 321.9 11.9 323 13.1
2012-06-13 06:58:10 51°17.7 2°51.962 321.6 11.8 323 12.5
2012-06-13 06:58:15 51°17.713 2°51.946 321 11.7 322 13
2012-06-13 06:58:20 51°17.726 2°51.93 321.6 11.7 324 12.7
2012-06-13 06:58:25 51°17.739 2°51.914 322.5 11.8 324 13
2012-06-13 06:58:30 51°17.752 2°51.899 322.9 11.7 324 12.7
2012-06-13 06:58:35 51°17.766 2°51.884 323 11.8 325 12.7
2012-06-13 06:58:39 51°17.776 2°51.872 323.8 11.7 326 12.2
2012-06-13 06:58:45 51°17.793 2°51.855 324.6 11.7 326 12.8
2012-06-13 06:58:50 51°17.806 2°51.84 325.2 11.8 326 12.6
2012-06-13 06:58:55 51°17.82 2°51.825 325.2 11.8 327 12.4
2012-06-13 06:59:00 51°17.833 2°51.811 326 11.8 328 12.7
2012-06-13 06:59:05 51°17.848 2°51.797 327 11.8 329 12.8
2012-06-13 06:59:11 51°17.864 2°51.78 327.6 11.8 328 12.5
2012-06-13 06:59:15 51°17.876 2°51.769 327.3 11.9 328 12.4
2012-06-13 06:59:20 51°17.89 2°51.755 326.6 11.9 327 12.7
2012-06-13 06:59:25 51°17.904 2°51.741 325.5 11.9 326 12.8
2012-06-13 06:59:31 51°17.92 2°51.723 324.7 11.9 325 12.9
2012-06-13 06:59:35 51°17.931 2°51.711 324.4 11.9 326 12.5
2012-06-13 06:59:39 51°17.942 2°51.7 324 11.8 324 13
2012-06-13 06:59:45 51°17.958 2°51.682 323.1 11.9 323 13.2
2012-06-13 06:59:51 51°17.974 2°51.663 323.1 11.8 324 12.9
2012-06-13 06:59:55 51°17.985 2°51.651 322.9 11.8 323 13
2012-06-13 07:00:00 51°17.998 2°51.636 323.1 12 324 13.3
2012-06-13 07:00:05 51°18.012 2°51.621 324 11.8 325 13.1
2012-06-13 07:00:11 51°18.028 2°51.604 325.2 11.8 327 13.6
2012-06-13 07:00:15 51°18.039 2°51.593 327.1 11.9 329 13.3
2012-06-13 07:00:20 51°18.054 2°51.579 327.4 11.9 328 13.2
2012-06-13 07:00:25 51°18.068 2°51.566 327.5 11.9 328 13.7
2012-06-13 07:00:30 51°18.082 2°51.552 327.4 11.9 328 13.8
2012-06-13 07:00:35 51°18.096 2°51.539 327.7 11.9 328 13.7
2012-06-13 07:00:39 51°18.107 2°51.527 327.6 12 328 13.6
2012-06-13 07:00:45 51°18.124 2°51.51 327.4 11.9 328 13.9
2012-06-13 07:00:50 51°18.138 2°51.496 326.9 11.9 327 13.9
2012-06-13 07:00:55 51°18.152 2°51.482 326.5 11.9 327 14.2
2012-06-13 07:01:00 51°18.165 2°51.467 326.1 11.9 326 14.1
2012-06-13 07:01:05 51°18.179 2°51.452 325.7 11.9 326 14.3
2012-06-13 07:01:10 51°18.192 2°51.438 325.5 11.8 326 14.7
2012-06-13 07:01:15 51°18.206 2°51.423 325.5 11.8 326 14.5
2012-06-13 07:01:20 51°18.22 2°51.408 325.6 11.9 327 15
2012-06-13 07:01:25 51°18.235 2°51.394 327 11.9 329 15.1
2012-06-13 07:01:30 51°18.249 2°51.381 328.4 11.8 329 14.7
2012-06-13 07:01:35 51°18.263 2°51.368 328.5 11.7 329 14.8
2012-06-13 07:01:40 51°18.277 2°51.354 328.8 11.8 329 15.4
2012-06-13 07:01:46 51°18.294 2°51.338 328.9 11.6 329 14.7
2012-06-13 07:01:51 51°18.307 2°51.324 328.1 11.7 328 15.3
2012-06-13 07:01:55 51°18.318 2°51.314 328.1 11.7 328 15.5
2012-06-13 07:02:00 51°18.332 2°51.3 327.5 11.8 328 15.5
2012-06-13 07:02:05 51°18.346 2°51.286 327.6 11.8 329 15.4
2012-06-13 07:02:11 51°18.363 2°51.27 327.7 11.8 328 15.1
2012-06-13 07:02:15 51°18.374 2°51.258 327.4 11.9 327 15.1
2012-06-13 07:02:20 51°18.388 2°51.244 326.7 11.8 328 15.5
2012-06-13 07:02:25 51°18.402 2°51.231 326.5 11.8 328 15.6
2012-06-13 07:02:31 51°18.419 2°51.214 326.8 11.9 329 15.7
2012-06-13 07:02:35 51°18.43 2°51.203 327.4 11.9 329 15.7
2012-06-13 07:02:39 51°18.442 2°51.192 327.7 11.8 327 16
2012-06-13 07:02:45 51°18.458 2°51.175 326.7 11.8 328 16.4
2012-06-13 07:02:50 51°18.472 2°51.161 325.6 11.8 326 16.5
2012-06-13 07:02:55 51°18.485 2°51.145 324.6 11.9 325 16.1
2012-06-13 07:03:00 51°18.499 2°51.13 323.8 11.8 325 15.9
2012-06-13 07:03:05 51°18.512 2°51.115 323.6 11.8 325 16.3
2012-06-13 07:03:10 51°18.525 2°51.1 323.3 11.9 325 16.6
2012-06-13 07:03:15 51°18.539 2°51.085 323.9 11.9 326 16.4
2012-06-13 07:03:20 51°18.553 2°51.071 324.6 12 327 16.4
2012-06-13 07:03:25 51°18.567 2°51.056 325.5 12 327 16.4
2012-06-13 07:03:30 51°18.581 2°51.042 326 12 328 16.5
2012-06-13 07:03:35 51°18.595 2°51.027 326.6 12 328 16.7
2012-06-13 07:03:40 51°18.609 2°51.013 326.6 12.1 327 16.6
2012-06-13 07:03:45 51°18.623 2°50.999 326.1 11.9 327 16.2
2012-06-13 07:03:50 51°18.636 2°50.984 325.6 12 325 17.2
2012-06-13 07:03:55 51°18.65 2°50.969 324.9 11.9 325 16.8
2012-06-13 07:04:00 51°18.663 2°50.954 323.9 11.8 325 16.5
2012-06-13 07:04:05 51°18.677 2°50.939 324 11.8 326 16.7
2012-06-13 07:04:11 51°18.693 2°50.921 324.2 11.9 325 16.9
2012-06-13 07:04:15 51°18.704 2°50.909 323.9 11.9 325 16.9
2012-06-13 07:04:20 51°18.717 2°50.894 323.3 11.9 324 17.2
2012-06-13 07:04:25 51°18.73 2°50.879 323.3 11.8 325 17.3
2012-06-13 07:04:31 51°18.746 2°50.861 323.4 11.7 324 16.6
2012-06-13 07:04:35 51°18.756 2°50.849 322.8 11.7 324 17.2
2012-06-13 07:04:40 51°18.77 2°50.834 323.4 11.8 325 17.1
2012-06-13 07:04:45 51°18.784 2°50.819 324.4 11.9 327 17
2012-06-13 07:04:50 51°18.798 2°50.805 325.1 12 327 17.2
2012-06-13 07:04:55 51°18.812 2°50.791 326.5 12 328 16.9
2012-06-13 07:05:00 51°18.826 2°50.778 327.5 11.9 330 17.3
2012-06-13 07:05:05 51°18.84 2°50.765 328.6 12 330 17.4
2012-06-13 07:05:10 51°18.855 2°50.752 328.9 12 330 17.1
2012-06-13 07:05:15 51°18.87 2°50.739 329.1 12.1 331 17.2
2012-06-13 07:05:20 51°18.885 2°50.727 330.3 12.1 332 17.1
2012-06-13 07:05:25 51°18.899 2°50.714 330.4 12.1 331 17.1
2012-06-13 07:05:30 51°18.914 2°50.7 329.9 12.2 331 17.2
2012-06-13 07:05:35 51°18.928 2°50.687 329.4 12.1 329 16.9
2012-06-13 07:05:40 51°18.942 2°50.673 328.3 12 330 17.2
2012-06-13 07:05:46 51°18.96 2°50.657 328.1 12 329 17.2
2012-06-13 07:05:51 51°18.974 2°50.643 328 12 329 16.9
2012-06-13 07:05:55 51°18.985 2°50.632 327.6 12 328 17.1
2012-06-13 07:05:59 51°18.996 2°50.621 326.8 12.1 328 16.8
2012-06-13 07:06:05 51°19.014 2°50.604 326.6 12 328 16.9
2012-06-13 07:06:10 51°19.028 2°50.591 327 12.1 328 17.2
2012-06-13 07:06:15 51°19.042 2°50.577 328.1 12 330 16.9
2012-06-13 07:06:19 51°19.054 2°50.567 328.6 12 330 16.5
2012-06-13 07:06:25 51°19.071 2°50.551 328.8 12.1 331 16.6
2012-06-13 07:06:30 51°19.086 2°50.537 329.1 11.8 328 16.1
2012-06-13 07:06:35 51°19.1 2°50.523 328.1 11.9 328 16.5
2012-06-13 07:06:40 51°19.113 2°50.509 326.8 11.8 327 16.2
2012-06-13 07:06:45 51°19.127 2°50.495 326.1 11.9 328 16.1
2012-06-13 07:06:50 51°19.141 2°50.481 326.6 12 329 15.9
2012-06-13 07:06:55 51°19.155 2°50.467 327.4 11.9 328 15.9
2012-06-13 07:06:59 51°19.167 2°50.456 327.3 12 328 15.7
2012-06-13 07:07:05 51°19.183 2°50.438 326 12.1 327 15.3
2012-06-13 07:07:10 51°19.197 2°50.423 325 11.9 325 15.3
2012-06-13 07:07:15 51°19.211 2°50.408 324.4 11.9 325 15.4
2012-06-13 07:07:20 51°19.224 2°50.392 323.8 11.9 324 15.2
2012-06-13 07:07:25 51°19.238 2°50.377 323.3 11.9 325 15
2012-06-13 07:07:31 51°19.254 2°50.358 323.2 11.9 324 14.7
2012-06-13 07:07:35 51°19.264 2°50.346 322.8 11.9 324 14.5
2012-06-13 07:07:40 51°19.277 2°50.33 322 11.7 323 14.2
2012-06-13 07:07:46 51°19.293 2°50.312 322.4 11.8 324 14.9
2012-06-13 07:07:51 51°19.306 2°50.296 323.1 11.7 324 14.4
2012-06-13 07:07:55 51°19.317 2°50.284 323.3 11.8 325 14.5
2012-06-13 07:07:59 51°19.328 2°50.273 323.8 11.8 325 14.6
2012-06-13 07:08:05 51°19.344 2°50.255 324.1 11.7 325 14.7
2012-06-13 07:08:11 51°19.36 2°50.236 323.9 11.8 325 14.3
2012-06-13 07:08:15 51°19.371 2°50.224 323.8 11.8 325 14.3
2012-06-13 07:08:20 51°19.384 2°50.21 324.7 11.9 327 14.2
2012-06-13 07:08:25 51°19.398 2°50.196 326 11.8 328 14.2
2012-06-13 07:08:31 51°19.415 2°50.179 327 11.9 328 14.3
2012-06-13 07:08:35 51°19.426 2°50.168 327.3 11.8 328 14.1
2012-06-13 07:08:40 51°19.44 2°50.155 327.4 11.8 329 14
2012-06-13 07:08:45 51°19.454 2°50.141 327.7 11.8 329 14
2012-06-13 07:08:51 51°19.471 2°50.125 327.8 11.8 329 14.2
2012-06-13 07:08:55 51°19.482 2°50.114 327.9 11.8 329 13.9
2012-06-13 07:08:59 51°19.493 2°50.104 327.6 11.7 329 14.6
2012-06-13 07:09:05 51°19.51 2°50.088 327.7 11.7 329 14.4
2012-06-13 07:09:10 51°19.524 2°50.074 327.4 11.7 328 14.8
2012-06-13 07:09:15 51°19.538 2°50.06 327.1 11.7 328 14.9
2012-06-13 07:09:20 51°19.551 2°50.046 326.2 11.7 327 15.3
2012-06-13 07:09:25 51°19.565 2°50.032 325.8 11.7 328 15.4
2012-06-13 07:09:30 51°19.578 2°50.018 326 11.7 327 15.9
2012-06-13 07:09:35 51°19.592 2°50.004 325.5 11.7 326 16.3
2012-06-13 07:09:40 51°19.605 2°49.989 324.9 11.8 326 16.4
2012-06-13 07:09:45 51°19.619 2°49.974 324.5 11.7 325 16.5
2012-06-13 07:09:50 51°19.632 2°49.959 323.9 11.7 325 16.7
2012-06-13 07:09:55 51°19.645 2°49.944 323.9 11.8 325 16.9
2012-06-13 07:10:00 51°19.659 2°49.929 324.1 11.7 325 16.6
2012-06-13 07:10:06 51°19.674 2°49.911 323.7 11.6 324 16.8
2012-06-13 07:10:10 51°19.685 2°49.899 323.2 11.6 324 17.1
2012-06-13 07:10:15 51°19.698 2°49.884 323.3 11.5 324 17.7
2012-06-13 07:10:21 51°19.713 2°49.866 324 11.6 325 17.3
2012-06-13 07:10:25 51°19.724 2°49.854 324.3 11.7 326 17.4
2012-06-13 07:10:30 51°19.738 2°49.84 325.2 11.6 327 17.2
2012-06-13 07:10:35 51°19.752 2°49.827 326.3 11.7 328 17.1
2012-06-13 07:10:40 51°19.765 2°49.813 327.6 11.5 328 17.8
2012-06-13 07:10:46 51°19.781 2°49.796 327.4 11.7 327 17.9
2012-06-13 07:10:51 51°19.795 2°49.782 327 11.6 328 17.5
2012-06-13 07:10:55 51°19.806 2°49.772 327.4 11.7 329 18
2012-06-13 07:10:59 51°19.817 2°49.761 327.9 11.7 329 18
2012-06-13 07:11:05 51°19.834 2°49.745 328.2 11.8 330 18.4
2012-06-13 07:11:10 51°19.848 2°49.732 329 11.8 330 18.6
2012-06-13 07:11:15 51°19.863 2°49.719 329.5 11.8 331 19
2012-06-13 07:11:19 51°19.874 2°49.709 330.1 11.9 332 18.9
2012-06-13 07:11:25 51°19.891 2°49.694 330.3 11.7 331 19
2012-06-13 07:11:30 51°19.905 2°49.681 329.2 11.7 330 19.5
2012-06-13 07:11:35 51°19.919 2°49.668 328.8 11.7 330 19.5
2012-06-13 07:11:40 51°19.934 2°49.655 328.8 11.7 330 19.7
2012-06-13 07:11:45 51°19.947 2°49.642 328.9 11.8 329 20.3
2012-06-13 07:11:50 51°19.961 2°49.628 328.3 11.7 329 20.1
2012-06-13 07:11:55 51°19.975 2°49.614 327.3 11.7 328 20.3
2012-06-13 07:12:00 51°19.989 2°49.6 326.7 11.6 328 20.2
2012-06-13 07:12:05 51°20.002 2°49.586 326.2 11.7 327 20.5
2012-06-13 07:12:10 51°20.016 2°49.573 325.9 11.7 328 20.7
2012-06-13 07:12:15 51°20.03 2°49.559 326.7 11.7 328 21.2
2012-06-13 07:12:20 51°20.044 2°49.545 326.7 11.7 327 21.3
2012-06-13 07:12:25 51°20.057 2°49.531 326.3 11.7 326 21.5
2012-06-13 07:12:30 51°20.071 2°49.517 325.6 11.7 326 21.6
2012-06-13 07:12:35 51°20.085 2°49.502 325.1 11.8 326 22.1
2012-06-13 07:12:40 51°20.098 2°49.488 325.3 11.8 328 22.4
2012-06-13 07:12:46 51°20.115 2°49.472 326.9 11.9 329 22.5
2012-06-13 07:12:51 51°20.129 2°49.458 327.6 11.9 328 22.8
2012-06-13 07:12:55 51°20.14 2°49.447 327.5 11.9 328 22.5
2012-06-13 07:12:59 51°20.151 2°49.436 327.3 11.7 328 23
2012-06-13 07:13:05 51°20.168 2°49.419 327 11.8 328 23.2
2012-06-13 07:13:11 51°20.184 2°49.403 326.7 11.7 327 23.3
2012-06-13 07:13:15 51°20.195 2°49.391 325.9 11.7 327 23.7
2012-06-13 07:13:20 51°20.209 2°49.377 325.3 11.7 326 24.1
2012-06-13 07:13:25 51°20.223 2°49.362 324.9 11.9 327 23.7
2012-06-13 07:13:31 51°20.239 2°49.345 325.4 11.7 327 23.7
2012-06-13 07:13:35 51°20.25 2°49.334 325.9 11.8 327 24
2012-06-13 07:13:40 51°20.264 2°49.32 326.2 11.8 328 24.2
2012-06-13 07:13:45 51°20.278 2°49.306 326.1 11.8 327 24.5
2012-06-13 07:13:50 51°20.292 2°49.292 326.3 11.8 329 24.4
2012-06-13 07:13:55 51°20.306 2°49.279 327.9 11.8 329 24.4
2012-06-13 07:13:59 51°20.317 2°49.268 327.6 11.8 328 24.8
2012-06-13 07:14:05 51°20.334 2°49.252 327.4 11.8 329 24.9
2012-06-13 07:14:10 51°20.347 2°49.238 327 11.8 327 25.2
2012-06-13 07:14:15 51°20.361 2°49.223 326.5 11.8 327 25
2012-06-13 07:14:20 51°20.375 2°49.209 326.1 11.8 327 24.7
2012-06-13 07:14:25 51°20.388 2°49.194 325.3 11.7 325 25.5
2012-06-13 07:14:30 51°20.401 2°49.18 324.5 11.7 325 25.6
2012-06-13 07:14:35 51°20.415 2°49.166 324.5 11.7 327 24.9
2012-06-13 07:14:40 51°20.428 2°49.152 325.2 11.5 327 25
2012-06-13 07:14:45 51°20.442 2°49.138 325.5 11.6 327 25
2012-06-13 07:14:50 51°20.456 2°49.124 325.9 11.7 327 24.7
2012-06-13 07:14:55 51°20.469 2°49.11 326 11.7 327 25.1
2012-06-13 07:15:00 51°20.483 2°49.096 326.1 11.8 328 25.2
2012-06-13 07:15:06 51°20.5 2°49.079 326.3 11.7 327 25
2012-06-13 07:15:11 51°20.514 2°49.065 325.8 11.8 327 25.4
2012-06-13 07:15:15 51°20.525 2°49.053 325.6 11.9 326 24.9
2012-06-13 07:15:20 51°20.538 2°49.039 325.8 11.8 327 24.9
2012-06-13 07:15:26 51°20.555 2°49.022 325.6 11.8 327 25.2
2012-06-13 07:15:30 51°20.566 2°49.011 325.9 11.9 327 25.2
2012-06-13 07:15:35 51°20.58 2°48.996 325.5 11.9 327 25.5
2012-06-13 07:15:40 51°20.594 2°48.982 325.4 11.9 327 25.1
2012-06-13 07:15:45 51°20.607 2°48.968 325.5 11.9 327 25.4
2012-06-13 07:15:51 51°20.625 2°48.951 326 11.9 329 25.2
2012-06-13 07:15:55 51°20.636 2°48.94 326.6 11.9 328 24.5
2012-06-13 07:15:59 51°20.647 2°48.929 326.7 11.8 328 25.1
2012-06-13 07:16:05 51°20.664 2°48.913 327 12 329 24.6
2012-06-13 07:16:10 51°20.678 2°48.899 327.7 11.7 329 24.4
2012-06-13 07:16:15 51°20.692 2°48.885 327.1 11.8 328 25.1
2012-06-13 07:16:20 51°20.706 2°48.872 327.1 11.8 329 24.6
2012-06-13 07:16:25 51°20.72 2°48.858 327.2 11.9 328 24.9
2012-06-13 07:16:30 51°20.734 2°48.844 326.8 11.9 328 25
2012-06-13 07:16:35 51°20.748 2°48.83 326.8 12 329 24.6
2012-06-13 07:16:40 51°20.762 2°48.817 327.4 11.8 329 24.2
2012-06-13 07:16:45 51°20.776 2°48.804 328 11.9 328 24.6
2012-06-13 07:16:50 51°20.79 2°48.789 327.1 11.9 328 24.8
2012-06-13 07:16:55 51°20.804 2°48.776 326.9 11.9 329 24.3
2012-06-13 07:17:00 51°20.819 2°48.763 327.4 11.9 330 23.9
2012-06-13 07:17:05 51°20.833 2°48.749 328.2 12 330 24
2012-06-13 07:17:10 51°20.847 2°48.736 328.7 12 329 23.7
2012-06-13 07:17:15 51°20.862 2°48.723 328 12 329 23.8
2012-06-13 07:17:19 51°20.873 2°48.712 327.4 12 329 23.6
2012-06-13 07:17:25 51°20.89 2°48.695 327.3 12.1 328 23.7
2012-06-13 07:17:30 51°20.904 2°48.681 326.7 12 329 23.6
2012-06-13 07:17:35 51°20.918 2°48.667 326.5 12 327 23.1
2012-06-13 07:17:40 51°20.932 2°48.652 325.5 12 327 23.4
2012-06-13 07:17:45 51°20.946 2°48.638 324.9 12 327 23.2
2012-06-13 07:17:51 51°20.963 2°48.62 325.2 12 327 23
2012-06-13 07:17:55 51°20.974 2°48.608 325.3 12.1 327 22.9
2012-06-13 07:18:00 51°20.988 2°48.594 325.7 11.9 328 23
2012-06-13 07:18:05 51°21.002 2°48.581 326.2 11.9 328 23.5
2012-06-13 07:18:11 51°21.019 2°48.564 326.9 12 328 23.1
2012-06-13 07:18:15 51°21.031 2°48.552 326.7 12.1 328 22.8
2012-06-13 07:18:20 51°21.045 2°48.538 326.7 12 328 22.9
2012-06-13 07:18:25 51°21.059 2°48.524 326.3 12.1 327 22.9
2012-06-13 07:18:30 51°21.073 2°48.51 325.5 12 327 22.7
2012-06-13 07:18:35 51°21.087 2°48.495 324.9 12 326 22.4
2012-06-13 07:18:39 51°21.097 2°48.483 324.3 12 326 22.5
2012-06-13 07:18:45 51°21.114 2°48.465 323.8 12 326 22.8
2012-06-13 07:18:50 51°21.128 2°48.45 323.8 12 326 22.8
2012-06-13 07:18:55 51°21.141 2°48.435 323.2 11.9 325 23
2012-06-13 07:19:00 51°21.155 2°48.419 322.8 12 325 22.8
2012-06-13 07:19:05 51°21.168 2°48.404 322.7 12.1 325 22.8
2012-06-13 07:19:10 51°21.182 2°48.388 322.8 12 324 22.8
2012-06-13 07:19:15 51°21.196 2°48.373 322.9 12.2 326 23
2012-06-13 07:19:20 51°21.209 2°48.358 324.1 12.1 327 23.4
2012-06-13 07:19:25 51°21.224 2°48.344 325.2 12 327 23.4
2012-06-13 07:19:30 51°21.238 2°48.329 325.1 12.1 327 23.7
2012-06-13 07:19:35 51°21.252 2°48.315 325.2 12.1 327 23.9
2012-06-13 07:19:40 51°21.266 2°48.301 325.2 12 327 23.6
2012-06-13 07:19:45 51°21.28 2°48.287 325.2 12.1 328 23.6
2012-06-13 07:19:50 51°21.294 2°48.273 325.6 12.1 328 23.5
2012-06-13 07:19:55 51°21.309 2°48.258 326 12.1 328 23.5
2012-06-13 07:20:00 51°21.323 2°48.244 326.4 12.1 328 23.7
2012-06-13 07:20:05 51°21.337 2°48.23 326.6 12.2 329 24.3
2012-06-13 07:20:11 51°21.355 2°48.214 327.4 12.1 329 24.5
2012-06-13 07:20:15 51°21.366 2°48.202 327.5 12.1 330 24.9
2012-06-13 07:20:20 51°21.38 2°48.189 327.7 12.2 330 24.7
2012-06-13 07:20:25 51°21.395 2°48.175 328.5 12.1 330 25.1
2012-06-13 07:20:31 51°21.413 2°48.16 328.9 12.2 330 25.4
2012-06-13 07:20:35 51°21.424 2°48.149 329.3 12.2 330 25.1
2012-06-13 07:20:40 51°21.439 2°48.135 329.3 12.1 330 25.3
2012-06-13 07:20:45 51°21.453 2°48.122 328.9 12.1 330 25.6
2012-06-13 07:20:50 51°21.468 2°48.109 329.4 12.1 331 25.4
2012-06-13 07:20:55 51°21.483 2°48.095 329.9 12.2 331 25.5
2012-06-13 07:21:00 51°21.498 2°48.082 330.3 12.3 331 25.9
2012-06-13 07:21:05 51°21.513 2°48.069 330.8 12.2 330 25.8
2012-06-13 07:21:10 51°21.527 2°48.056 329.9 12.2 330 25.5
2012-06-13 07:21:15 51°21.542 2°48.043 329.2 12.2 330 25.4
2012-06-13 07:21:20 51°21.556 2°48.03 329.5 12 331 25.4
2012-06-13 07:21:25 51°21.571 2°48.017 330.1 11.9 331 25.8
2012-06-13 07:21:30 51°21.585 2°48.004 330.3 11.9 331 25.8
2012-06-13 07:21:35 51°21.6 2°47.992 330.6 12 332 25.8
2012-06-13 07:21:40 51°21.615 2°47.979 330.8 11.9 331 25.3
2012-06-13 07:21:45 51°21.629 2°47.967 329.8 11.9 330 25.6
2012-06-13 07:21:50 51°21.643 2°47.954 328.5 11.8 329 25.6
2012-06-13 07:21:55 51°21.657 2°47.94 327.8 11.8 329 25.5
2012-06-13 07:22:00 51°21.671 2°47.926 326.4 11.7 327 25.6
2012-06-13 07:22:06 51°21.687 2°47.908 324.5 11.7 325 25.4
2012-06-13 07:22:11 51°21.7 2°47.894 324 11.7 327 25.4
2012-06-13 07:22:15 51°21.711 2°47.883 324.5 11.8 326 25.8
2012-06-13 07:22:19 51°21.722 2°47.871 325.2 11.8 327 25.7
2012-06-13 07:22:25 51°21.738 2°47.854 325.4 11.7 327 25.8
2012-06-13 07:22:31 51°21.755 2°47.837 324.8 11.7 325 26.3
2012-06-13 07:22:35 51°21.765 2°47.825 323.8 11.7 325 26.3
2012-06-13 07:22:40 51°21.778 2°47.809 323.1 11.7 325 25.4
2012-06-13 07:22:45 51°21.791 2°47.794 322.2 11.6 324 25.7
2012-06-13 07:22:51 51°21.807 2°47.776 322.2 11.6 324 26
2012-06-13 07:22:55 51°21.817 2°47.764 321.9 11.7 324 25.5
2012-06-13 07:23:00 51°21.831 2°47.748 322.1 11.7 324 25.7
2012-06-13 07:23:05 51°21.844 2°47.734 322.7 11.6 325 25.5
2012-06-13 07:23:10 51°21.857 2°47.719 322.7 11.5 325 25.6
2012-06-13 07:23:15 51°21.87 2°47.704 322.3 11.6 324 25.7
2012-06-13 07:23:19 51°21.881 2°47.692 322.7 11.6 326 26.3
2012-06-13 07:23:25 51°21.897 2°47.674 323.2 11.6 326 26
2012-06-13 07:23:30 51°21.91 2°47.66 323.4 11.7 327 25.8
2012-06-13 07:23:35 51°21.923 2°47.645 323.6 11.7 326 25.9
2012-06-13 07:23:40 51°21.937 2°47.63 323.6 11.7 325 26
2012-06-13 07:23:45 51°21.95 2°47.616 323.3 11.7 325 25.8
2012-06-13 07:23:51 51°21.966 2°47.598 323 11.6 326 26
2012-06-13 07:23:55 51°21.977 2°47.587 323.8 11.7 327 26.3
2012-06-13 07:24:00 51°21.991 2°47.573 324.4 11.8 327 26.1
2012-06-13 07:24:06 51°22.007 2°47.555 324.7 11.6 326 26.5
2012-06-13 07:24:11 51°22.021 2°47.541 324.6 11.6 327 26.7
2012-06-13 07:24:15 51°22.032 2°47.53 324.8 11.6 327 26.3
2012-06-13 07:24:19 51°22.042 2°47.519 325.2 11.8 328 26.5
2012-06-13 07:24:25 51°22.059 2°47.503 326.1 11.8 328 26.3
2012-06-13 07:24:31 51°22.076 2°47.487 327.4 11.7 330 25.7
2012-06-13 07:24:35 51°22.087 2°47.476 328 11.8 329 25.3
2012-06-13 07:24:40 51°22.102 2°47.464 328.4 11.8 331 26
2012-06-13 07:24:45 51°22.116 2°47.451 329.4 11.8 331 25.9
2012-06-13 07:24:51 51°22.133 2°47.436 329.6 11.8 332 25.8
2012-06-13 07:24:55 51°22.145 2°47.426 329.6 11.8 332 25.9
2012-06-13 07:25:00 51°22.159 2°47.414 329.5 11.9 332 25.4
2012-06-13 07:25:05 51°22.174 2°47.402 329.7 11.9 332 25.4
2012-06-13 07:25:10 51°22.189 2°47.389 329.5 12 332 25.1
2012-06-13 07:25:15 51°22.203 2°47.376 329.6 11.9 331 24.3
2012-06-13 07:25:20 51°22.218 2°47.364 329 12 331 23.3
2012-06-13 07:25:25 51°22.232 2°47.351 328.8 11.8 330 22.6
2012-06-13 07:25:30 51°22.246 2°47.338 328.1 11.9 330 23.1
2012-06-13 07:25:35 51°22.26 2°47.324 327.5 11.9 329 22.4
2012-06-13 07:25:40 51°22.274 2°47.311 326.6 11.9 330 21.7
2012-06-13 07:25:45 51°22.288 2°47.297 326.1 11.8 327 21.7
2012-06-13 07:25:50 51°22.302 2°47.283 325.3 11.9 328 21.7
2012-06-13 07:25:55 51°22.315 2°47.268 325.1 11.8 326 21
2012-06-13 07:26:00 51°22.329 2°47.254 323.8 11.7 326 21.5
2012-06-13 07:26:06 51°22.345 2°47.236 323.6 11.8 326 21.7
2012-06-13 07:26:11 51°22.359 2°47.222 324.3 11.7 327 20.9
2012-06-13 07:26:15 51°22.369 2°47.211 324.5 11.7 326 21.5
2012-06-13 07:26:19 51°22.38 2°47.199 324.3 11.8 326 21.9
2012-06-13 07:26:25 51°22.397 2°47.182 325.1 11.6 328 21
2012-06-13 07:26:30 51°22.411 2°47.169 325.4 11.7 329 21.1
2012-06-13 07:26:35 51°22.425 2°47.156 326.2 11.8 329 21.3
2012-06-13 07:26:40 51°22.439 2°47.142 327.2 11.8 330 21.1
2012-06-13 07:26:45 51°22.453 2°47.129 327.4 11.9 330 21.1
2012-06-13 07:26:51 51°22.471 2°47.114 328.2 11.9 331 20.8
2012-06-13 07:26:55 51°22.482 2°47.104 328.5 11.9 331 21.4
2012-06-13 07:27:00 51°22.497 2°47.091 329.2 12 332 21
2012-06-13 07:27:05 51°22.512 2°47.079 329.5 12 332 21
2012-06-13 07:27:10 51°22.526 2°47.066 329 12.1 332 20.8
2012-06-13 07:27:15 51°22.541 2°47.053 329 12 330 20.8
2012-06-13 07:27:20 51°22.555 2°47.04 328.1 12 330 21.2
2012-06-13 07:27:25 51°22.569 2°47.026 327.2 12 329 21.3
2012-06-13 07:27:30 51°22.584 2°47.012 326 11.9 328 21.2
2012-06-13 07:27:35 51°22.597 2°46.998 325.2 12 328 20.9
2012-06-13 07:27:40 51°22.612 2°46.985 325.6 11.9 328 20.7
2012-06-13 07:27:45 51°22.626 2°46.971 325.9 11.9 330 20.8
2012-06-13 07:27:50 51°22.64 2°46.957 326.1 11.9 329 20.9
2012-06-13 07:27:55 51°22.654 2°46.944 325.9 11.9 328 21.3
2012-06-13 07:28:00 51°22.668 2°46.93 325.5 11.8 327 21.1
2012-06-13 07:28:05 51°22.682 2°46.915 324.6 11.9 327 21.2
2012-06-13 07:28:10 51°22.696 2°46.901 324.6 12 328 21.4
2012-06-13 07:28:15 51°22.71 2°46.887 324.7 11.9 327 21.2
2012-06-13 07:28:20 51°22.724 2°46.873 324.2 11.9 327 21.7
2012-06-13 07:28:25 51°22.738 2°46.858 323.6 11.9 326 21.6
2012-06-13 07:28:30 51°22.752 2°46.843 323.2 11.9 327 21.7
2012-06-13 07:28:35 51°22.765 2°46.828 323.4 11.9 326 22.3
2012-06-13 07:28:40 51°22.779 2°46.814 323.2 11.9 326 23.1
2012-06-13 07:28:45 51°22.793 2°46.799 323.4 12 326 23.6
2012-06-13 07:28:51 51°22.809 2°46.781 323.7 12 327 23.4
2012-06-13 07:28:55 51°22.82 2°46.769 323.3 11.9 326 22.9
2012-06-13 07:29:00 51°22.834 2°46.755 323.4 11.9 326 23.3
2012-06-13 07:29:05 51°22.848 2°46.74 323.8 12 327 24.3
2012-06-13 07:29:11 51°22.865 2°46.723 323.8 11.9 327 24.4
2012-06-13 07:29:15 51°22.876 2°46.711 324.4 12 327 24.4
2012-06-13 07:29:20 51°22.89 2°46.697 324.9 11.8 327 24.4
2012-06-13 07:29:25 51°22.904 2°46.683 324.9 11.8 329 23.9
2012-06-13 07:29:30 51°22.918 2°46.67 326.1 12 329 25.4
2012-06-13 07:29:35 51°22.932 2°46.657 327.4 11.9 330 25
2012-06-13 07:29:40 51°22.947 2°46.644 328 11.9 332 25
2012-06-13 07:29:45 51°22.961 2°46.632 328.5 12 332 25.9
2012-06-13 07:29:50 51°22.976 2°46.62 329.2 11.9 333 25.2
2012-06-13 07:29:55 51°22.99 2°46.607 329 11.8 331 24.6
2012-06-13 07:29:59 51°23.002 2°46.597 328.7 12 332 25.9
2012-06-13 07:30:05 51°23.019 2°46.581 328.9 12 331 25.9
2012-06-13 07:30:10 51°23.034 2°46.569 328.9 12 330 26.4
2012-06-13 07:30:15 51°23.048 2°46.554 326.7 11.9 327 26.3
2012-06-13 07:30:20 51°23.062 2°46.542 326.2 12 330 25.1
2012-06-13 07:30:25 51°23.076 2°46.527 325.4 12 327 23.9
2012-06-13 07:30:31 51°23.093 2°46.509 324.5 12 327 24.2
2012-06-13 07:30:35 51°23.104 2°46.497 323.5 12 325 24.4
2012-06-13 07:30:40 51°23.118 2°46.482 322.3 12 326 23.7
2012-06-13 07:30:46 51°23.134 2°46.464 322 11.9 325 25
2012-06-13 07:30:51 51°23.148 2°46.449 321.9 11.9 326 25
2012-06-13 07:30:55 51°23.159 2°46.437 322.1 12 325 25.8
2012-06-13 07:30:59 51°23.17 2°46.425 322.1 12 325 25.6
2012-06-13 07:31:05 51°23.186 2°46.406 321.7 11.9 325 26.3
2012-06-13 07:31:11 51°23.202 2°46.388 321.6 12 324 27.1
2012-06-13 07:31:15 51°23.213 2°46.375 321.4 11.9 323 27.2
2012-06-13 07:31:20 51°23.226 2°46.359 320.9 11.9 322 27.6
2012-06-13 07:31:25 51°23.238 2°46.342 317.9 11.7 318 27.5
2012-06-13 07:31:31 51°23.251 2°46.32 312.7 11.6 314 26.9
2012-06-13 07:31:35 51°23.26 2°46.305 311.2 11.7 314 26.3
2012-06-13 07:31:40 51°23.27 2°46.285 308.7 11.5 309 26.8
2012-06-13 07:31:45 51°23.28 2°46.265 305.9 11.3 308 26.8
2012-06-13 07:31:50 51°23.289 2°46.244 303.4 11.4 305 27.5
2012-06-13 07:31:55 51°23.298 2°46.223 301 11.3 304 27.7
2012-06-13 07:31:59 51°23.304 2°46.206 299.1 11.3 301 28.1
2012-06-13 07:32:05 51°23.314 2°46.18 298.5 11.3 301 28.3
2012-06-13 07:32:10 51°23.322 2°46.158 297.3 11.3 300 28.2
2012-06-13 07:32:15 51°23.33 2°46.137 295.5 11.4 300 28.5
2012-06-13 07:32:20 51°23.338 2°46.115 297.7 11.5 304 28.7
2012-06-13 07:32:25 51°23.348 2°46.094 299.8 11.6 302 28.7
2012-06-13 07:32:30 51°23.356 2°46.072 299.7 11.5 305 27.7
2012-06-13 07:32:35 51°23.366 2°46.052 301.6 11.5 307 28.4
2012-06-13 07:32:40 51°23.375 2°46.031 302.4 11.5 304 27.6
2012-06-13 07:32:45 51°23.385 2°46.011 303 11.6 309 27.5
2012-06-13 07:32:50 51°23.395 2°45.99 304.2 11.5 308 28.2
2012-06-13 07:32:55 51°23.405 2°45.97 304.8 11.6 308 28.2
2012-06-13 07:33:00 51°23.415 2°45.95 305 11.7 310 29
2012-06-13 07:33:06 51°23.427 2°45.926 305 11.7 310 29.6
2012-06-13 07:33:11 51°23.437 2°45.906 305.7 11.7 308 29.8
2012-06-13 07:33:15 51°23.446 2°45.89 306.2 11.8 311 28.8
2012-06-13 07:33:19 51°23.454 2°45.873 306.2 11.8 310 29
2012-06-13 07:33:25 51°23.467 2°45.849 307.1 11.9 310 29.4
2012-06-13 07:33:31 51°23.48 2°45.826 307.1 11.9 311 28.9
2012-06-13 07:33:35 51°23.488 2°45.81 307.8 12 311 29.4
2012-06-13 07:33:40 51°23.5 2°45.79 309.1 12 312 29
2012-06-13 07:33:45 51°23.511 2°45.771 309.7 12 313 29.1
2012-06-13 07:33:51 51°23.524 2°45.748 310.4 11.9 313 28.6
2012-06-13 07:33:55 51°23.533 2°45.732 309.9 11.9 311 29.3
2012-06-13 07:34:00 51°23.544 2°45.712 308.9 12 312 29.3
2012-06-13 07:34:05 51°23.555 2°45.693 310.7 11.8 313 29.5
2012-06-13 07:34:10 51°23.566 2°45.674 310.9 11.7 312 29.4
2012-06-13 07:34:15 51°23.577 2°45.655 311.5 11.7 313 29.2
2012-06-13 07:34:19 51°23.586 2°45.64 310.7 11.8 314 29.6
2012-06-13 07:34:25 51°23.599 2°45.617 310.7 11.8 313 30.1
2012-06-13 07:34:30 51°23.611 2°45.599 311.2 11.8 313 30.4
2012-06-13 07:34:35 51°23.622 2°45.579 310.7 11.7 313 29.6
2012-06-13 07:34:40 51°23.633 2°45.56 310.2 11.7 312 29.9
2012-06-13 07:34:45 51°23.643 2°45.54 309.9 11.7 312 29.2
2012-06-13 07:34:51 51°23.656 2°45.517 309.2 11.7 312 29.2
2012-06-13 07:34:55 51°23.665 2°45.501 309.3 11.8 312 29.3
2012-06-13 07:35:00 51°23.676 2°45.482 309.7 11.8 312 29.1
2012-06-13 07:35:06 51°23.689 2°45.458 310.1 11.9 312 29.4
2012-06-13 07:35:11 51°23.7 2°45.439 310.3 11.9 313 29.3
2012-06-13 07:35:15 51°23.709 2°45.424 310.2 11.8 312 29.3
2012-06-13 07:35:19 51°23.718 2°45.408 309.8 11.8 313 29.8
2012-06-13 07:35:25 51°23.731 2°45.385 309.8 11.8 312 29.2
2012-06-13 07:35:31 51°23.744 2°45.361 309.6 11.8 311 29.6
2012-06-13 07:35:35 51°23.753 2°45.346 309.2 11.8 311 29.5
2012-06-13 07:35:40 51°23.764 2°45.326 309.3 11.8 312 29.2
2012-06-13 07:35:45 51°23.775 2°45.307 310.1 11.8 313 29.5
2012-06-13 07:35:50 51°23.786 2°45.288 311.3 11.9 314 29.4
2012-06-13 07:35:55 51°23.798 2°45.269 311.9 11.8 313 29.5
2012-06-13 07:36:00 51°23.809 2°45.251 311.8 11.8 314 29.5
2012-06-13 07:36:05 51°23.82 2°45.231 312.2 11.9 313 28.8
2012-06-13 07:36:10 51°23.832 2°45.213 313 11.8 314 28.6
2012-06-13 07:36:15 51°23.843 2°45.194 311.8 11.8 313 29.3
2012-06-13 07:36:20 51°23.854 2°45.175 311.5 11.8 313 29.4
2012-06-13 07:36:25 51°23.866 2°45.156 311.6 11.6 312 29
2012-06-13 07:36:30 51°23.876 2°45.136 309.4 11.6 311 28.8
2012-06-13 07:36:35 51°23.886 2°45.117 308.3 11.6 310 29.6
2012-06-13 07:36:40 51°23.896 2°45.096 307.7 11.5 309 28.3
2012-06-13 07:36:45 51°23.907 2°45.076 306.9 11.6 309 28.5
2012-06-13 07:36:50 51°23.917 2°45.056 306.5 11.7 309 29.1
2012-06-13 07:36:55 51°23.927 2°45.036 307 11.7 309 29.1
2012-06-13 07:37:00 51°23.937 2°45.016 306.5 11.6 307 29
2012-06-13 07:37:06 51°23.949 2°44.991 305 11.7 308 28.9
2012-06-13 07:37:11 51°23.958 2°44.97 304.7 11.8 307 29.1
2012-06-13 07:37:15 51°23.966 2°44.954 305.6 11.8 308 29.3
2012-06-13 07:37:19 51°23.974 2°44.937 305.8 11.8 307 29.3
2012-06-13 07:37:25 51°23.986 2°44.912 305.1 11.7 307 29.4
2012-06-13 07:37:30 51°23.996 2°44.891 304.6 11.8 306 29.4
2012-06-13 07:37:35 51°24.005 2°44.87 303 11.8 305 28.9
2012-06-13 07:37:39 51°24.012 2°44.853 303.2 11.8 306 29.2
2012-06-13 07:37:45 51°24.024 2°44.828 303.6 11.8 306 29
2012-06-13 07:37:50 51°24.034 2°44.807 303.6 11.8 306 29.3
2012-06-13 07:37:55 51°24.043 2°44.786 304 11.8 306 29.3
2012-06-13 07:38:00 51°24.053 2°44.764 304.8 11.9 306 29.7
2012-06-13 07:38:05 51°24.063 2°44.744 305.3 11.8 308 29.1
2012-06-13 07:38:11 51°24.075 2°44.72 306.1 11.8 308 29.6
2012-06-13 07:38:15 51°24.083 2°44.703 306.7 11.7 307 29.8
2012-06-13 07:38:20 51°24.093 2°44.682 305.8 11.7 307 29.2
2012-06-13 07:38:25 51°24.103 2°44.662 305.6 11.7 308 29.3
2012-06-13 07:38:30 51°24.113 2°44.641 306.1 11.7 306 29.4
2012-06-13 07:38:35 51°24.123 2°44.62 305.7 11.7 308 28.7
2012-06-13 07:38:40 51°24.132 2°44.6 305.5 11.7 306 29.8
2012-06-13 07:38:45 51°24.142 2°44.58 305.7 11.6 308 29.7
2012-06-13 07:38:50 51°24.152 2°44.559 306.1 11.7 307 28.8
2012-06-13 07:38:55 51°24.162 2°44.538 305.2 11.7 307 27.1
2012-06-13 07:38:59 51°24.17 2°44.522 304.6 11.7 306 27.3
2012-06-13 07:39:05 51°24.181 2°44.497 305.1 11.7 307 27.8